sensor_id;sensor_type;location;lat;lon;timestamp;pressure;altitude;pressure_sealevel;temperature;humidity
25526;BME280;13424;48.424;11.258;2023-08-12T00:00:57;96048.00;;;22.40;69.82
25526;BME280;13424;48.424;11.258;2023-08-12T00:03:23;96034.44;;;22.12;70.93
25526;BME280;13424;48.424;11.258;2023-08-12T00:05:49;96041.38;;;22.32;69.84
25526;BME280;13424;48.424;11.258;2023-08-12T00:08:15;96036.03;;;22.27;70.06
25526;BME280;13424;48.424;11.258;2023-08-12T00:10:40;96047.03;;;22.22;70.41
25526;BME280;13424;48.424;11.258;2023-08-12T00:13:06;96037.81;;;21.77;71.49
25526;BME280;13424;48.424;11.258;2023-08-12T00:15:33;96030.88;;;21.84;71.17
25526;BME280;13424;48.424;11.258;2023-08-12T00:17:59;96034.00;;;21.91;71.33
25526;BME280;13424;48.424;11.258;2023-08-12T00:20:25;96042.66;;;21.93;70.97
25526;BME280;13424;48.424;11.258;2023-08-12T00:22:50;96040.03;;;22.02;70.49
25526;BME280;13424;48.424;11.258;2023-08-12T00:25:17;96037.00;;;22.03;70.13
25526;BME280;13424;48.424;11.258;2023-08-12T00:27:42;96035.25;;;22.13;70.52
25526;BME280;13424;48.424;11.258;2023-08-12T00:30:09;96036.56;;;22.29;69.91
25526;BME280;13424;48.424;11.258;2023-08-12T00:32:35;96040.25;;;21.92;70.98
25526;BME280;13424;48.424;11.258;2023-08-12T00:35:01;96033.31;;;21.99;70.80
25526;BME280;13424;48.424;11.258;2023-08-12T00:37:29;96025.97;;;21.72;72.02
25526;BME280;13424;48.424;11.258;2023-08-12T00:39:54;96027.69;;;22.10;70.40
25526;BME280;13424;48.424;11.258;2023-08-12T00:42:23;96025.78;;;22.10;70.17
25526;BME280;13424;48.424;11.258;2023-08-12T00:44:49;96023.97;;;22.06;69.92
25526;BME280;13424;48.424;11.258;2023-08-12T00:47:16;96012.81;;;22.21;69.53
25526;BME280;13424;48.424;11.258;2023-08-12T00:49:43;96019.34;;;22.20;69.60
25526;BME280;13424;48.424;11.258;2023-08-12T00:52:13;96022.03;;;22.06;70.27
25526;BME280;13424;48.424;11.258;2023-08-12T00:54:40;96012.06;;;21.88;71.04
25526;BME280;13424;48.424;11.258;2023-08-12T00:57:06;96017.03;;;22.13;70.08
25526;BME280;13424;48.424;11.258;2023-08-12T00:59:36;96015.72;;;22.11;69.76
25526;BME280;13424;48.424;11.258;2023-08-12T01:02:05;96010.38;;;22.33;69.28
25526;BME280;13424;48.424;11.258;2023-08-12T01:04:31;96011.66;;;21.94;70.01
25526;BME280;13424;48.424;11.258;2023-08-12T01:06:57;96021.75;;;21.34;72.67
25526;BME280;13424;48.424;11.258;2023-08-12T01:09:23;96012.44;;;21.54;72.12
25526;BME280;13424;48.424;11.258;2023-08-12T01:12:07;96009.38;;;21.28;72.72
25526;BME280;13424;48.424;11.258;2023-08-12T01:14:50;96017.78;;;21.26;72.61
25526;BME280;13424;48.424;11.258;2023-08-12T01:17:17;96003.94;;;21.74;70.69
25526;BME280;13424;48.424;11.258;2023-08-12T01:19:44;96003.50;;;21.53;71.26
25526;BME280;13424;48.424;11.258;2023-08-12T01:22:12;95997.97;;;21.72;70.54
25526;BME280;13424;48.424;11.258;2023-08-12T01:24:41;95999.81;;;21.77;70.21
25526;BME280;13424;48.424;11.258;2023-08-12T01:27:12;95988.56;;;21.83;69.79
25526;BME280;13424;48.424;11.258;2023-08-12T01:29:50;95978.28;;;21.80;70.02
25526;BME280;13424;48.424;11.258;2023-08-12T01:36:13;95974.75;;;21.80;70.08
25526;BME280;13424;48.424;11.258;2023-08-12T01:38:40;95977.91;;;21.73;70.26
25526;BME280;13424;48.424;11.258;2023-08-12T01:41:11;95968.66;;;21.74;70.19
25526;BME280;13424;48.424;11.258;2023-08-12T01:43:40;95967.13;;;21.68;70.17
25526;BME280;13424;48.424;11.258;2023-08-12T01:46:10;95969.84;;;21.68;70.14
25526;BME280;13424;48.424;11.258;2023-08-12T01:48:36;95961.72;;;21.82;69.84
25526;BME280;13424;48.424;11.258;2023-08-12T01:51:02;95965.00;;;21.51;70.99
25526;BME280;13424;48.424;11.258;2023-08-12T01:53:28;95959.59;;;21.51;70.83
25526;BME280;13424;48.424;11.258;2023-08-12T01:55:54;95953.75;;;21.58;70.68
25526;BME280;13424;48.424;11.258;2023-08-12T01:58:20;95958.59;;;21.61;70.40
25526;BME280;13424;48.424;11.258;2023-08-12T02:00:46;95953.16;;;21.61;70.49
25526;BME280;13424;48.424;11.258;2023-08-12T02:03:12;95957.66;;;21.52;70.48
25526;BME280;13424;48.424;11.258;2023-08-12T02:05:38;95957.19;;;21.50;70.61
25526;BME280;13424;48.424;11.258;2023-08-12T02:08:05;95960.78;;;21.59;70.41
25526;BME280;13424;48.424;11.258;2023-08-12T02:10:34;95946.31;;;21.50;70.50
25526;BME280;13424;48.424;11.258;2023-08-12T02:13:00;95950.53;;;21.56;70.84
25526;BME280;13424;48.424;11.258;2023-08-12T02:15:26;95957.69;;;21.65;70.55
25526;BME280;13424;48.424;11.258;2023-08-12T02:17:52;95953.38;;;21.18;72.06
25526;BME280;13424;48.424;11.258;2023-08-12T02:20:18;95951.31;;;21.29;72.02
25526;BME280;13424;48.424;11.258;2023-08-12T02:22:44;95953.75;;;21.58;70.79
25526;BME280;13424;48.424;11.258;2023-08-12T02:25:10;95946.47;;;21.26;71.60
25526;BME280;13424;48.424;11.258;2023-08-12T02:27:36;95945.69;;;21.39;71.08
25526;BME280;13424;48.424;11.258;2023-08-12T02:30:03;95940.69;;;21.46;71.17
25526;BME280;13424;48.424;11.258;2023-08-12T02:32:29;95939.47;;;21.38;71.11
25526;BME280;13424;48.424;11.258;2023-08-12T02:34:55;95949.72;;;21.41;70.85
25526;BME280;13424;48.424;11.258;2023-08-12T02:37:21;95940.06;;;21.35;71.20
25526;BME280;13424;48.424;11.258;2023-08-12T02:39:47;95933.38;;;21.14;72.08
25526;BME280;13424;48.424;11.258;2023-08-12T02:42:13;95934.66;;;21.16;72.04
25526;BME280;13424;48.424;11.258;2023-08-12T02:44:39;95935.38;;;21.22;71.57
25526;BME280;13424;48.424;11.258;2023-08-12T02:47:05;95937.09;;;21.18;71.78
25526;BME280;13424;48.424;11.258;2023-08-12T02:49:31;95936.94;;;20.96;72.43
25526;BME280;13424;48.424;11.258;2023-08-12T02:52:00;95929.97;;;20.57;73.44
25526;BME280;13424;48.424;11.258;2023-08-12T02:54:26;95926.00;;;20.68;73.64
25526;BME280;13424;48.424;11.258;2023-08-12T02:56:52;95930.06;;;20.84;73.14
25526;BME280;13424;48.424;11.258;2023-08-12T02:59:19;95931.53;;;20.63;73.37
25526;BME280;13424;48.424;11.258;2023-08-12T03:01:45;95928.38;;;20.56;74.00
25526;BME280;13424;48.424;11.258;2023-08-12T03:04:11;95930.72;;;20.44;74.40
25526;BME280;13424;48.424;11.258;2023-08-12T03:06:37;95926.53;;;21.03;72.33
25526;BME280;13424;48.424;11.258;2023-08-12T03:09:03;95928.75;;;21.14;71.82
25526;BME280;13424;48.424;11.258;2023-08-12T03:11:29;95933.63;;;20.66;73.39
25526;BME280;13424;48.424;11.258;2023-08-12T03:13:57;95929.78;;;20.86;72.88
25526;BME280;13424;48.424;11.258;2023-08-12T03:16:25;95931.16;;;20.70;73.27
25526;BME280;13424;48.424;11.258;2023-08-12T03:18:52;95925.97;;;20.54;73.78
25526;BME280;13424;48.424;11.258;2023-08-12T03:21:18;95927.66;;;20.83;72.78
25526;BME280;13424;48.424;11.258;2023-08-12T03:23:44;95911.03;;;20.89;72.70
25526;BME280;13424;48.424;11.258;2023-08-12T03:26:11;95925.50;;;20.66;73.52
25526;BME280;13424;48.424;11.258;2023-08-12T03:28:37;95925.81;;;20.46;74.02
25526;BME280;13424;48.424;11.258;2023-08-12T03:31:03;95924.81;;;20.74;73.01
25526;BME280;13424;48.424;11.258;2023-08-12T03:33:31;95923.16;;;20.78;73.12
25526;BME280;13424;48.424;11.258;2023-08-12T03:35:58;95915.22;;;20.82;72.86
25526;BME280;13424;48.424;11.258;2023-08-12T03:38:24;95911.63;;;20.86;72.76
25526;BME280;13424;48.424;11.258;2023-08-12T03:40:50;95917.38;;;20.66;73.50
25526;BME280;13424;48.424;11.258;2023-08-12T03:43:18;95909.38;;;20.37;74.41
25526;BME280;13424;48.424;11.258;2023-08-12T03:45:57;95917.44;;;20.61;73.71
25526;BME280;13424;48.424;11.258;2023-08-12T03:48:23;95917.38;;;20.66;73.44
25526;BME280;13424;48.424;11.258;2023-08-12T03:50:49;95927.50;;;20.23;75.12
25526;BME280;13424;48.424;11.258;2023-08-12T03:53:15;95923.53;;;20.15;75.18
25526;BME280;13424;48.424;11.258;2023-08-12T03:55:42;95919.03;;;20.05;75.48
25526;BME280;13424;48.424;11.258;2023-08-12T03:58:09;95929.56;;;19.88;76.24
25526;BME280;13424;48.424;11.258;2023-08-12T04:00:35;95924.13;;;19.69;76.86
25526;BME280;13424;48.424;11.258;2023-08-12T04:03:02;95925.38;;;19.77;76.39
25526;BME280;13424;48.424;11.258;2023-08-12T04:05:34;95925.72;;;19.70;76.77
25526;BME280;13424;48.424;11.258;2023-08-12T04:08:02;95931.13;;;20.13;75.41
25526;BME280;13424;48.424;11.258;2023-08-12T04:10:30;95926.44;;;20.00;75.78
25526;BME280;13424;48.424;11.258;2023-08-12T04:12:56;95930.22;;;19.80;76.52
25526;BME280;13424;48.424;11.258;2023-08-12T04:15:22;95924.44;;;19.87;76.20
25526;BME280;13424;48.424;11.258;2023-08-12T04:17:48;95926.19;;;19.77;77.02
25526;BME280;13424;48.424;11.258;2023-08-12T04:20:14;95935.44;;;19.95;76.11
25526;BME280;13424;48.424;11.258;2023-08-12T04:22:40;95931.84;;;20.00;75.96
25526;BME280;13424;48.424;11.258;2023-08-12T04:25:07;95930.25;;;20.18;75.20
25526;BME280;13424;48.424;11.258;2023-08-12T04:27:34;95934.22;;;20.25;74.81
25526;BME280;13424;48.424;11.258;2023-08-12T04:30:01;95935.81;;;20.07;75.42
25526;BME280;13424;48.424;11.258;2023-08-12T04:32:28;95936.66;;;19.84;76.14
25526;BME280;13424;48.424;11.258;2023-08-12T04:34:54;95937.56;;;19.74;76.71
25526;BME280;13424;48.424;11.258;2023-08-12T04:37:21;95931.00;;;19.80;76.22
25526;BME280;13424;48.424;11.258;2023-08-12T04:39:47;95941.53;;;19.82;76.65
25526;BME280;13424;48.424;11.258;2023-08-12T04:42:13;95940.19;;;19.85;76.50
25526;BME280;13424;48.424;11.258;2023-08-12T04:44:39;95942.47;;;19.72;77.08
25526;BME280;13424;48.424;11.258;2023-08-12T04:47:06;95931.78;;;19.62;77.43
25526;BME280;13424;48.424;11.258;2023-08-12T04:49:37;95922.31;;;19.84;76.75
25526;BME280;13424;48.424;11.258;2023-08-12T04:52:04;95921.97;;;19.66;77.72
25526;BME280;13424;48.424;11.258;2023-08-12T04:54:31;95930.06;;;19.90;76.93
25526;BME280;13424;48.424;11.258;2023-08-12T04:56:57;95931.13;;;20.13;76.07
25526;BME280;13424;48.424;11.258;2023-08-12T04:59:23;95921.03;;;20.38;75.46
25526;BME280;13424;48.424;11.258;2023-08-12T05:01:49;95933.41;;;20.25;75.75
25526;BME280;13424;48.424;11.258;2023-08-12T05:04:15;95927.41;;;20.28;76.10
25526;BME280;13424;48.424;11.258;2023-08-12T05:06:41;95935.31;;;20.24;76.40
25526;BME280;13424;48.424;11.258;2023-08-12T05:09:07;95920.91;;;20.48;75.91
25526;BME280;13424;48.424;11.258;2023-08-12T05:11:34;95925.00;;;20.64;75.50
25526;BME280;13424;48.424;11.258;2023-08-12T05:14:00;95925.88;;;20.41;76.01
25526;BME280;13424;48.424;11.258;2023-08-12T05:16:26;95923.31;;;20.30;76.89
25526;BME280;13424;48.424;11.258;2023-08-12T05:18:52;95929.56;;;20.82;75.47
25526;BME280;13424;48.424;11.258;2023-08-12T05:21:18;95918.66;;;20.87;75.29
25526;BME280;13424;48.424;11.258;2023-08-12T05:23:44;95921.84;;;20.89;75.12
25526;BME280;13424;48.424;11.258;2023-08-12T05:26:10;95925.16;;;21.19;74.30
25526;BME280;13424;48.424;11.258;2023-08-12T05:28:36;95920.69;;;21.42;73.78
25526;BME280;13424;48.424;11.258;2023-08-12T05:31:03;95927.63;;;21.34;74.05
25526;BME280;13424;48.424;11.258;2023-08-12T05:33:29;95916.75;;;21.34;74.41
25526;BME280;13424;48.424;11.258;2023-08-12T05:35:55;95924.69;;;21.72;73.28
25526;BME280;13424;48.424;11.258;2023-08-12T05:39:27;95928.41;;;21.35;74.77
25526;BME280;13424;48.424;11.258;2023-08-12T05:41:53;95928.72;;;21.61;73.97
25526;BME280;13424;48.424;11.258;2023-08-12T05:44:19;95930.44;;;21.57;75.06
25526;BME280;13424;48.424;11.258;2023-08-12T05:46:45;95922.47;;;21.88;74.11
25526;BME280;13424;48.424;11.258;2023-08-12T05:49:11;95932.63;;;22.10;73.63
25526;BME280;13424;48.424;11.258;2023-08-12T05:51:37;95931.72;;;22.50;71.65
25526;BME280;13424;48.424;11.258;2023-08-12T05:54:04;95931.88;;;22.68;71.93
25526;BME280;13424;48.424;11.258;2023-08-12T05:56:30;95934.50;;;22.95;70.56
25526;BME280;13424;48.424;11.258;2023-08-12T05:58:56;95937.59;;;23.02;71.97
25526;BME280;13424;48.424;11.258;2023-08-12T06:01:22;95936.47;;;23.03;71.29
25526;BME280;13424;48.424;11.258;2023-08-12T06:03:48;95932.56;;;22.96;72.53
25526;BME280;13424;48.424;11.258;2023-08-12T06:06:14;95934.38;;;23.00;72.21
25526;BME280;13424;48.424;11.258;2023-08-12T06:08:40;95924.75;;;22.58;73.65
25526;BME280;13424;48.424;11.258;2023-08-12T06:11:50;95920.13;;;22.81;73.00
25526;BME280;13424;48.424;11.258;2023-08-12T06:14:15;95930.44;;;22.70;73.56
25526;BME280;13424;48.424;11.258;2023-08-12T06:16:41;95928.94;;;22.42;74.84
25526;BME280;13424;48.424;11.258;2023-08-12T06:19:07;95926.53;;;22.40;75.29
25526;BME280;13424;48.424;11.258;2023-08-12T06:21:33;95929.00;;;22.28;75.86
25526;BME280;13424;48.424;11.258;2023-08-12T06:23:59;95926.88;;;22.61;76.26
25526;BME280;13424;48.424;11.258;2023-08-12T06:26:25;95920.69;;;22.69;75.08
25526;BME280;13424;48.424;11.258;2023-08-12T06:28:51;95920.53;;;22.88;73.66
25526;BME280;13424;48.424;11.258;2023-08-12T06:31:17;95925.25;;;23.05;73.47
25526;BME280;13424;48.424;11.258;2023-08-12T06:37:34;95916.44;;;23.61;71.60
25526;BME280;13424;48.424;11.258;2023-08-12T06:40:00;95903.94;;;23.60;71.63
25526;BME280;13424;48.424;11.258;2023-08-12T06:42:25;95906.53;;;23.65;71.53
25526;BME280;13424;48.424;11.258;2023-08-12T06:44:59;95908.38;;;23.87;71.11
25526;BME280;13424;48.424;11.258;2023-08-12T06:47:26;95916.38;;;23.92;71.65
25526;BME280;13424;48.424;11.258;2023-08-12T06:49:53;95912.41;;;24.07;71.42
25526;BME280;13424;48.424;11.258;2023-08-12T06:52:28;95915.31;;;24.11;70.85
25526;BME280;13424;48.424;11.258;2023-08-12T06:54:54;95916.34;;;24.58;70.13
25526;BME280;13424;48.424;11.258;2023-08-12T06:57:20;95908.94;;;24.85;69.56
25526;BME280;13424;48.424;11.258;2023-08-12T06:59:46;95914.53;;;24.88;68.40
25526;BME280;13424;48.424;11.258;2023-08-12T07:02:15;95918.19;;;25.18;68.62
25526;BME280;13424;48.424;11.258;2023-08-12T07:04:41;95918.25;;;25.56;68.04
25526;BME280;13424;48.424;11.258;2023-08-12T07:07:07;95922.28;;;25.50;67.53
25526;BME280;13424;48.424;11.258;2023-08-12T07:09:33;95917.97;;;25.87;67.09
25526;BME280;13424;48.424;11.258;2023-08-12T07:11:59;95916.94;;;25.63;68.92
25526;BME280;13424;48.424;11.258;2023-08-12T07:14:25;95918.31;;;25.39;67.97
25526;BME280;13424;48.424;11.258;2023-08-12T07:20:55;95924.03;;;26.85;63.72
25526;BME280;13424;48.424;11.258;2023-08-12T07:23:21;95917.28;;;26.50;66.89
25526;BME280;13424;48.424;11.258;2023-08-12T07:25:47;95914.91;;;26.81;65.27
25526;BME280;13424;48.424;11.258;2023-08-12T07:28:13;95918.13;;;27.16;64.09
25526;BME280;13424;48.424;11.258;2023-08-12T07:31:22;95916.19;;;27.05;65.60
25526;BME280;13424;48.424;11.258;2023-08-12T07:33:48;95915.31;;;27.25;64.07
25526;BME280;13424;48.424;11.258;2023-08-12T07:36:14;95911.41;;;26.93;63.25
25526;BME280;13424;48.424;11.258;2023-08-12T07:38:40;95907.44;;;27.69;62.61
25526;BME280;13424;48.424;11.258;2023-08-12T07:41:06;95908.56;;;27.80;62.49
25526;BME280;13424;48.424;11.258;2023-08-12T07:43:32;95917.81;;;28.00;62.86
25526;BME280;13424;48.424;11.258;2023-08-12T07:45:58;95922.97;;;28.14;62.26
25526;BME280;13424;48.424;11.258;2023-08-12T07:48:24;95922.72;;;28.31;62.08
25526;BME280;13424;48.424;11.258;2023-08-12T07:50:57;95920.44;;;28.45;61.34
25526;BME280;13424;48.424;11.258;2023-08-12T07:53:24;95923.41;;;28.16;61.75
25526;BME280;13424;48.424;11.258;2023-08-12T07:55:51;95919.53;;;28.04;62.37
25526;BME280;13424;48.424;11.258;2023-08-12T07:58:17;95922.81;;;28.34;59.48
25526;BME280;13424;48.424;11.258;2023-08-12T08:00:43;95923.16;;;28.45;60.94
25526;BME280;13424;48.424;11.258;2023-08-12T08:03:09;95923.84;;;28.18;60.36
25526;BME280;13424;48.424;11.258;2023-08-12T08:05:35;95925.81;;;28.29;62.46
25526;BME280;13424;48.424;11.258;2023-08-12T08:08:01;95930.28;;;28.74;60.05
25526;BME280;13424;48.424;11.258;2023-08-12T08:10:27;95928.16;;;28.55;61.89
25526;BME280;13424;48.424;11.258;2023-08-12T08:12:53;95922.66;;;28.68;61.88
25526;BME280;13424;48.424;11.258;2023-08-12T08:15:19;95922.03;;;28.09;62.42
25526;BME280;13424;48.424;11.258;2023-08-12T08:17:46;95915.66;;;29.26;60.83
25526;BME280;13424;48.424;11.258;2023-08-12T08:20:12;95920.06;;;30.06;58.80
25526;BME280;13424;48.424;11.258;2023-08-12T08:22:38;95924.19;;;30.32;57.21
25526;BME280;13424;48.424;11.258;2023-08-12T08:25:05;95924.16;;;30.82;55.89
25526;BME280;13424;48.424;11.258;2023-08-12T08:27:32;95925.78;;;29.38;58.31
25526;BME280;13424;48.424;11.258;2023-08-12T08:29:58;95929.19;;;29.47;59.19
25526;BME280;13424;48.424;11.258;2023-08-12T08:32:24;95929.03;;;29.28;59.34
25526;BME280;13424;48.424;11.258;2023-08-12T08:34:51;95925.50;;;29.87;59.25
25526;BME280;13424;48.424;11.258;2023-08-12T08:37:17;95934.06;;;30.17;57.71
25526;BME280;13424;48.424;11.258;2023-08-12T08:39:43;95930.34;;;30.09;57.95
25526;BME280;13424;48.424;11.258;2023-08-12T08:42:10;95929.91;;;30.58;56.47
25526;BME280;13424;48.424;11.258;2023-08-12T08:44:40;95940.56;;;30.09;58.52
25526;BME280;13424;48.424;11.258;2023-08-12T08:47:08;95937.31;;;31.12;55.78
25526;BME280;13424;48.424;11.258;2023-08-12T08:49:36;95940.03;;;30.03;57.93
25526;BME280;13424;48.424;11.258;2023-08-12T08:52:03;95944.50;;;31.17;57.02
25526;BME280;13424;48.424;11.258;2023-08-12T08:54:29;95931.41;;;30.20;58.88
25526;BME280;13424;48.424;11.258;2023-08-12T08:56:55;95937.13;;;31.63;55.50
25526;BME280;13424;48.424;11.258;2023-08-12T08:59:21;95929.06;;;31.12;55.38
25526;BME280;13424;48.424;11.258;2023-08-12T09:01:49;95935.53;;;30.81;56.14
25526;BME280;13424;48.424;11.258;2023-08-12T09:04:17;95921.66;;;31.35;56.26
25526;BME280;13424;48.424;11.258;2023-08-12T09:06:45;95924.81;;;31.57;56.20
25526;BME280;13424;48.424;11.258;2023-08-12T09:09:16;95936.59;;;30.96;57.01
25526;BME280;13424;48.424;11.258;2023-08-12T09:11:45;95936.78;;;31.87;55.29
25526;BME280;13424;48.424;11.258;2023-08-12T09:18:16;95935.44;;;31.35;55.81
25526;BME280;13424;48.424;11.258;2023-08-12T09:20:43;95927.59;;;31.18;56.18
25526;BME280;13424;48.424;11.258;2023-08-12T09:23:09;95930.97;;;31.50;56.39
25526;BME280;13424;48.424;11.258;2023-08-12T09:25:44;95929.44;;;31.30;55.76
25526;BME280;13424;48.424;11.258;2023-08-12T09:28:12;95929.88;;;31.55;55.67
25526;BME280;13424;48.424;11.258;2023-08-12T09:30:39;95929.00;;;31.51;55.46
25526;BME280;13424;48.424;11.258;2023-08-12T09:33:08;95927.06;;;31.51;56.41
25526;BME280;13424;48.424;11.258;2023-08-12T09:35:37;95929.94;;;31.16;56.88
25526;BME280;13424;48.424;11.258;2023-08-12T09:38:12;95925.16;;;30.94;54.78
25526;BME280;13424;48.424;11.258;2023-08-12T09:40:39;95933.75;;;31.73;54.50
25526;BME280;13424;48.424;11.258;2023-08-12T09:43:05;95935.97;;;31.87;53.74
25526;BME280;13424;48.424;11.258;2023-08-12T09:45:33;95932.81;;;31.43;53.70
25526;BME280;13424;48.424;11.258;2023-08-12T09:48:00;95929.44;;;31.30;54.25
25526;BME280;13424;48.424;11.258;2023-08-12T09:50:28;95932.81;;;31.43;55.04
25526;BME280;13424;48.424;11.258;2023-08-12T09:52:55;95934.28;;;31.36;56.02
25526;BME280;13424;48.424;11.258;2023-08-12T09:55:25;95928.13;;;31.24;54.41
25526;BME280;13424;48.424;11.258;2023-08-12T09:57:53;95925.66;;;31.38;54.90
25526;BME280;13424;48.424;11.258;2023-08-12T10:00:22;95927.84;;;31.52;55.58
25526;BME280;13424;48.424;11.258;2023-08-12T10:02:51;95925.53;;;31.54;57.04
25526;BME280;13424;48.424;11.258;2023-08-12T10:05:33;95927.59;;;32.56;55.96
25526;BME280;13424;48.424;11.258;2023-08-12T10:07:59;95933.06;;;32.52;53.56
25526;BME280;13424;48.424;11.258;2023-08-12T10:10:30;95930.38;;;30.79;56.07
25526;BME280;13424;48.424;11.258;2023-08-12T10:12:58;95932.00;;;31.84;52.80
25526;BME280;13424;48.424;11.258;2023-08-12T10:15:25;95924.88;;;31.37;54.13
25526;BME280;13424;48.424;11.258;2023-08-12T10:17:52;95928.09;;;31.85;54.30
25526;BME280;13424;48.424;11.258;2023-08-12T10:20:24;95925.91;;;32.47;55.05
25526;BME280;13424;48.424;11.258;2023-08-12T10:22:51;95919.25;;;33.12;51.39
25526;BME280;13424;48.424;11.258;2023-08-12T10:25:19;95916.78;;;31.71;53.13
25526;BME280;13424;48.424;11.258;2023-08-12T10:27:48;95913.72;;;31.53;55.47
25526;BME280;13424;48.424;11.258;2023-08-12T10:30:15;95921.09;;;32.41;52.54
25526;BME280;13424;48.424;11.258;2023-08-12T10:32:41;95913.97;;;31.45;55.11
25526;BME280;13424;48.424;11.258;2023-08-12T10:35:09;95913.09;;;31.40;53.84
25526;BME280;13424;48.424;11.258;2023-08-12T10:37:36;95915.19;;;31.70;53.35
25526;BME280;13424;48.424;11.258;2023-08-12T10:40:05;95913.34;;;31.55;54.71
25526;BME280;13424;48.424;11.258;2023-08-12T10:42:48;95906.25;;;32.00;55.65
25526;BME280;13424;48.424;11.258;2023-08-12T10:45:17;95911.75;;;33.13;53.25
25526;BME280;13424;48.424;11.258;2023-08-12T10:48:23;95916.38;;;32.71;54.68
25526;BME280;13424;48.424;11.258;2023-08-12T10:50:55;95913.75;;;33.16;50.71
25526;BME280;13424;48.424;11.258;2023-08-12T10:53:29;95907.44;;;32.25;52.83
25526;BME280;13424;48.424;11.258;2023-08-12T10:56:04;95908.22;;;32.82;53.71
25526;BME280;13424;48.424;11.258;2023-08-12T10:58:46;95920.25;;;32.97;53.16
25526;BME280;13424;48.424;11.258;2023-08-12T11:01:18;95901.50;;;32.49;53.79
25526;BME280;13424;48.424;11.258;2023-08-12T11:03:46;95909.34;;;32.47;54.85
25526;BME280;13424;48.424;11.258;2023-08-12T11:06:13;95905.63;;;32.63;52.29
25526;BME280;13424;48.424;11.258;2023-08-12T11:08:52;95913.84;;;33.23;52.93
25526;BME280;13424;48.424;11.258;2023-08-12T11:11:24;95907.94;;;32.61;52.85
25526;BME280;13424;48.424;11.258;2023-08-12T11:13:57;95902.75;;;33.56;52.45
25526;BME280;13424;48.424;11.258;2023-08-12T11:16:36;95898.84;;;33.57;52.59
25526;BME280;13424;48.424;11.258;2023-08-12T11:19:04;95894.91;;;33.62;50.41
25526;BME280;13424;48.424;11.258;2023-08-12T11:21:30;95898.22;;;33.38;50.62
25526;BME280;13424;48.424;11.258;2023-08-12T11:23:56;95891.56;;;32.75;51.73
25526;BME280;13424;48.424;11.258;2023-08-12T11:26:24;95890.63;;;32.94;51.96
25526;BME280;13424;48.424;11.258;2023-08-12T11:28:50;95884.06;;;32.45;52.41
25526;BME280;13424;48.424;11.258;2023-08-12T11:31:17;95888.75;;;32.41;52.29
25526;BME280;13424;48.424;11.258;2023-08-12T11:33:44;95877.41;;;33.47;50.30
25526;BME280;13424;48.424;11.258;2023-08-12T11:36:10;95874.16;;;33.86;49.44
25526;BME280;13424;48.424;11.258;2023-08-12T11:38:38;95874.03;;;33.68;49.78
25526;BME280;13424;48.424;11.258;2023-08-12T11:41:04;95871.91;;;32.80;50.12
25526;BME280;13424;48.424;11.258;2023-08-12T11:43:32;95875.06;;;33.12;49.51
25526;BME280;13424;48.424;11.258;2023-08-12T11:45:59;95873.38;;;33.82;49.75
25526;BME280;13424;48.424;11.258;2023-08-12T11:48:34;95879.19;;;33.29;50.71
25526;BME280;13424;48.424;11.258;2023-08-12T11:51:01;95875.78;;;32.45;53.30
25526;BME280;13424;48.424;11.258;2023-08-12T11:53:27;95870.31;;;32.22;51.34
25526;BME280;13424;48.424;11.258;2023-08-12T11:55:53;95869.25;;;32.87;51.67
25526;BME280;13424;48.424;11.258;2023-08-12T11:58:19;95862.28;;;32.67;49.88
25526;BME280;13424;48.424;11.258;2023-08-12T12:00:49;95864.72;;;32.72;50.32
25526;BME280;13424;48.424;11.258;2023-08-12T12:03:17;95869.28;;;32.91;51.59
25526;BME280;13424;48.424;11.258;2023-08-12T12:05:46;95869.22;;;33.21;50.37
25526;BME280;13424;48.424;11.258;2023-08-12T12:08:14;95858.19;;;33.62;48.57
25526;BME280;13424;48.424;11.258;2023-08-12T12:10:40;95866.34;;;33.92;47.88
25526;BME280;13424;48.424;11.258;2023-08-12T12:13:06;95855.13;;;33.33;49.33
25526;BME280;13424;48.424;11.258;2023-08-12T12:15:43;95854.94;;;33.12;48.43
25526;BME280;13424;48.424;11.258;2023-08-12T12:18:13;95856.81;;;33.41;48.93
25526;BME280;13424;48.424;11.258;2023-08-12T12:21:03;95857.94;;;32.99;48.14
25526;BME280;13424;48.424;11.258;2023-08-12T12:23:30;95852.38;;;32.96;48.84
25526;BME280;13424;48.424;11.258;2023-08-12T12:26:02;95851.72;;;33.10;46.81
25526;BME280;13424;48.424;11.258;2023-08-12T12:28:29;95850.88;;;33.39;46.86
25526;BME280;13424;48.424;11.258;2023-08-12T12:30:55;95847.50;;;33.60;48.03
25526;BME280;13424;48.424;11.258;2023-08-12T12:33:21;95849.41;;;33.52;46.99
25526;BME280;13424;48.424;11.258;2023-08-12T12:35:49;95841.47;;;33.47;47.25
25526;BME280;13424;48.424;11.258;2023-08-12T12:38:15;95845.38;;;33.43;48.14
25526;BME280;13424;48.424;11.258;2023-08-12T12:40:41;95849.31;;;33.04;51.41
25526;BME280;13424;48.424;11.258;2023-08-12T12:43:07;95837.09;;;33.43;50.00
25526;BME280;13424;48.424;11.258;2023-08-12T12:45:33;95837.38;;;33.34;49.56
25526;BME280;13424;48.424;11.258;2023-08-12T12:47:59;95838.97;;;33.35;49.32
25526;BME280;13424;48.424;11.258;2023-08-12T12:50:24;95833.34;;;33.69;48.31
25526;BME280;13424;48.424;11.258;2023-08-12T12:52:51;95829.13;;;34.40;48.85
25526;BME280;13424;48.424;11.258;2023-08-12T12:55:16;95839.50;;;34.65;48.99
25526;BME280;13424;48.424;11.258;2023-08-12T12:57:44;95837.38;;;35.42;47.61
25526;BME280;13424;48.424;11.258;2023-08-12T13:00:10;95839.31;;;34.33;46.80
25526;BME280;13424;48.424;11.258;2023-08-12T13:02:55;95842.00;;;34.95;46.00
25526;BME280;13424;48.424;11.258;2023-08-12T13:05:21;95838.28;;;34.55;46.65
25526;BME280;13424;48.424;11.258;2023-08-12T13:07:47;95834.97;;;34.35;47.72
25526;BME280;13424;48.424;11.258;2023-08-12T13:10:13;95831.03;;;34.33;48.43